Time;durP1;ratioP1;P1;durP2;ratioP2;P2;SDS_P1;SDS_P2;PMS_P1;PMS_P2;Temp;Humidity;BMP_temperature;BMP_pressure;BME280_temperature;BME280_humidity;BME280_pressure;Samples;Min_cycle;Max_cycle;Signal;HPM_P1;HPM_P2
2022/06/21 00:05:06;;;;;;;7.22;3.60;;;;;;;26.74;44.40;99556.94;20863350;27;97504;-80
2022/06/21 00:15:07;;;;;;;3.53;3.22;;;;;;;26.73;44.44;99526.88;20853639;27;100426;-79
2022/06/21 00:25:26;;;;;;;4.10;3.40;;;;;;;26.71;44.20;99544.84;20850628;27;100634;-79
2022/06/21 00:35:27;;;;;;;3.50;3.20;;;;;;;26.69;44.30;99566.22;20864982;27;97109;-79
2022/06/21 00:45:35;;;;;;;5.00;3.10;;;;;;;26.70;44.52;99606.91;20848358;27;101930;-79
2022/06/21 00:55:56;;;;;;;3.17;2.88;;;;;;;26.68;44.04;99596.47;20865404;27;99655;-79
2022/06/21 01:06:02;;;;;;;4.70;3.20;;;;;;;26.68;44.07;99616.88;20851025;27;97356;-79
2022/06/21 01:16:03;;;;;;;3.42;3.13;;;;;;;26.67;44.13;99617.84;20835606;27;99989;-79
2022/06/21 01:26:28;;;;;;;3.20;2.90;;;;;;;26.64;44.24;99587.19;20851500;27;100519;-79
2022/06/21 01:36:35;;;;;;;3.35;3.05;;;;;;;26.64;44.09;99605.75;20865129;27;101171;-79
2022/06/21 01:46:35;;;;;;;3.88;2.85;;;;;;;26.63;43.92;99611.25;20831669;27;100675;-77
2022/06/21 01:56:38;;;;;;;4.07;3.10;;;;;;;26.61;44.20;99643.31;20835843;27;97668;-78
2022/06/21 02:06:42;;;;;;;3.65;3.15;;;;;;;26.59;44.21;99652.44;20832271;27;98998;-78
2022/06/21 02:16:47;;;;;;;3.80;2.92;;;;;;;26.58;44.17;99659.56;20822117;27;96821;-77
2022/06/21 02:26:50;;;;;;;3.13;2.75;;;;;;;26.57;44.24;99665.06;20829398;27;101998;-78
2022/06/21 02:36:55;;;;;;;2.75;2.55;;;;;;;26.57;44.26;99662.41;20837958;27;100496;-77
2022/06/21 02:47:12;;;;;;;2.70;2.50;;;;;;;26.57;44.08;99667.72;20834989;27;97662;-77
2022/06/21 02:57:23;;;;;;;4.15;2.50;;;;;;;26.55;43.80;99681.16;20843770;27;98683;-79
2022/06/21 03:07:41;;;;;;;;;;;;;;;26.56;44.00;99689.94;20838270;27;97929;-78
2022/06/21 03:17:51;;;;;;;2.85;2.63;;;;;;;26.54;43.87;99703.41;20832989;27;98033;-78
2022/06/21 03:27:57;;;;;;;2.53;2.33;;;;;;;26.53;44.18;99729.09;20814354;27;97552;-79
2022/06/21 03:37:58;;;;;;;2.70;2.40;;;;;;;26.50;43.99;99718.84;20819021;27;100523;-78
2022/06/21 03:48:16;;;;;;;2.72;2.40;;;;;;;26.50;44.12;99760.47;20828129;27;97603;-76
2022/06/21 03:58:28;;;;;;;2.70;2.45;;;;;;;26.50;44.01;99773.75;20805872;27;101622;-78
2022/06/21 04:08:39;;;;;;;3.00;2.30;;;;;;;26.49;43.67;99772.13;20825045;27;98357;-77
2022/06/21 04:19:00;;;;;;;4.50;2.40;;;;;;;26.30;40.72;99786.56;20814412;27;101097;-79
2022/06/21 04:29:10;;;;;;;3.37;2.23;;;;;;;25.77;39.80;99789.50;20818575;27;101098;-76
2022/06/21 04:39:21;;;;;;;1.80;1.70;;;;;;;25.55;38.72;99788.31;20816940;27;101924;-80
2022/06/21 04:49:55;;;;;;;2.70;1.52;;;;;;;25.05;37.87;99800.53;20830517;27;97630;-78
2022/06/21 05:00:02;;;;;;;1.77;1.38;;;;;;;23.56;39.38;99817.00;20816328;27;99276;-73
2022/06/21 05:10:03;;;;;;;1.85;1.05;;;;;;;23.65;37.98;99818.75;20804344;27;100015;-74
2022/06/21 05:20:13;;;;;;;1.88;1.20;;;;;;;23.68;39.04;99815.81;20842566;27;97085;-80
2022/06/21 05:30:22;;;;;;;2.55;1.27;;;;;;;22.84;41.00;99825.50;20847582;27;97287;-79
2022/06/21 05:40:50;;;;;;;2.80;1.30;;;;;;;22.69;40.57;99830.38;20862286;27;97065;-81
2022/06/21 05:50:51;;;;;;;2.08;1.65;;;;;;;22.97;39.89;99847.13;20874204;27;98586;-81
2022/06/21 06:01:17;;;;;;;3.25;1.15;;;;;;;22.70;40.59;99832.91;20849250;27;97971;-81
2022/06/21 06:11:25;;;;;;;1.83;1.10;;;;;;;22.86;37.54;99839.38;20889038;27;97901;-81
2022/06/21 06:21:38;;;;;;;4.18;2.10;;;;;;;22.60;38.89;99858.47;20885448;27;97092;-82
2022/06/21 06:31:55;;;;;;;3.05;0.95;;;;;;;22.63;37.22;99858.19;20869304;27;100067;-81
2022/06/21 06:42:02;;;;;;;2.55;0.98;;;;;;;22.68;37.49;99869.16;20887284;27;99663;-81
2022/06/21 06:52:15;;;;;;;3.67;0.90;;;;;;;22.81;34.12;99871.50;20873386;27;97940;-81
2022/06/21 07:02:33;;;;;;;2.92;1.05;;;;;;;22.60;33.89;99865.56;20879730;27;97057;-81
2022/06/21 07:12:33;;;;;;;1.77;0.70;;;;;;;22.87;33.25;99872.72;20889965;27;99829;-80
2022/06/21 07:22:36;;;;;;;4.73;0.80;;;;;;;22.84;31.27;99897.59;20889928;27;96838;-82
2022/06/21 07:32:43;;;;;;;1.90;0.90;;;;;;;22.78;30.02;99899.97;20885551;27;97357;-81
2022/06/21 07:42:55;;;;;;;4.68;1.08;;;;;;;22.77;30.08;99904.41;20875757;27;101020;-82
2022/06/21 07:53:22;;;;;;;4.88;1.13;;;;;;;22.78;30.67;99897.34;20886726;27;100878;-81
2022/06/21 08:13:45;;;;;;;2.93;0.90;;;;;;;23.09;29.62;99902.41;20846837;27;1184615;-80
2022/06/21 08:24:01;;;;;;;3.70;1.20;;;;;;;23.41;30.45;99915.28;20890468;27;97010;-81
2022/06/21 08:34:08;;;;;;;4.78;1.13;;;;;;;23.54;29.99;99914.94;20878998;27;96941;-81
2022/06/21 08:44:44;;;;;;;3.60;1.00;;;;;;;23.38;27.85;99920.84;20886747;27;97597;-82
2022/06/21 08:55:03;;;;;;;2.55;1.00;;;;;;;23.62;28.69;99933.53;20890106;27;98037;-82
2022/06/21 09:05:41;;;;;;;6.53;1.23;;;;;;;23.80;29.43;99941.53;20893036;27;97737;-82
2022/06/21 09:15:58;;;;;;;1.27;0.90;;;;;;;23.68;28.04;99921.56;20877933;27;98317;-82
2022/06/21 09:26:25;;;;;;;3.60;0.82;;;;;;;23.65;28.29;99920.00;20878697;27;101197;-80
2022/06/21 09:36:39;;;;;;;5.70;0.95;;;;;;;23.90;28.04;99935.34;20868264;27;97899;-85
2022/06/21 09:46:55;;;;;;;1.75;0.90;;;;;;;24.13;27.89;99935.78;20849509;27;98482;-80
2022/06/21 09:57:40;;;;;;;1.40;0.90;;;;;;;24.16;28.07;99927.56;20840980;27;97108;-81
2022/06/21 10:08:09;;;;;;;4.70;0.90;;;;;;;24.35;27.74;99923.97;20822375;27;101600;-84
2022/06/21 10:18:48;;;;;;;2.55;1.00;;;;;;;24.37;26.47;99903.44;20854988;27;97702;-80
2022/06/21 10:29:04;;;;;;;1.83;0.70;;;;;;;24.54;26.00;99927.44;20851049;27;96998;-80
2022/06/21 10:39:42;;;;;;;7.00;1.27;;;;;;;24.63;26.01;99918.56;20866955;27;97723;-84
2022/06/21 10:49:57;;;;;;;2.35;1.10;;;;;;;24.76;27.49;99920.84;20850265;27;96989;-84
2022/06/21 11:10:54;;;;;;;5.47;1.15;;;;;;;25.14;27.35;99942.63;20866779;27;99680;-81
2022/06/21 11:21:00;;;;;;;3.67;0.80;;;;;;;25.20;26.94;99946.47;20881006;27;97535;-82
2022/06/21 11:31:00;;;;;;;3.20;1.30;;;;;;;25.30;26.54;99952.50;20887681;27;97228;-82
2022/06/21 11:41:10;;;;;;;2.92;0.80;;;;;;;25.36;25.05;99954.50;20868466;27;98363;-79
2022/06/21 11:51:11;;;;;;;3.45;0.52;;;;;;;25.45;24.98;99957.25;20857466;27;97726;-81
2022/06/21 12:01:17;;;;;;;1.17;0.60;;;;;;;25.63;24.77;99949.22;20872295;27;97952;-81
2022/06/21 12:11:43;;;;;;;3.95;0.70;;;;;;;25.65;24.73;99953.38;20870941;27;99542;-83
2022/06/21 12:21:57;;;;;;;1.88;0.80;;;;;;;25.78;25.76;99929.06;20859089;27;100431;-79
2022/06/21 12:32:01;;;;;;;5.18;1.38;;;;;;;25.85;26.04;99927.44;20878872;27;97774;-80
2022/06/21 12:42:46;;;;;;;3.58;1.00;;;;;;;25.95;26.15;99903.44;20879559;27;98449;-80
2022/06/21 12:53:08;;;;;;;6.15;1.00;;;;;;;26.20;26.49;99893.69;20836506;27;97328;-78
2022/06/21 13:03:39;;;;;;;3.78;0.90;;;;;;;26.29;25.62;99891.91;20841055;27;97494;-77
2022/06/21 13:14:02;;;;;;;1.53;1.10;;;;;;;26.48;25.58;99905.84;20853544;27;97375;-79
2022/06/21 13:24:27;;;;;;;2.50;1.00;;;;;;;26.48;25.47;99896.03;20856134;27;98029;-81
2022/06/21 13:34:42;;;;;;;2.25;0.80;;;;;;;26.58;24.76;99893.22;20848780;27;97572;-80
2022/06/21 13:45:09;;;;;;;5.53;0.70;;;;;;;26.77;24.12;99899.22;20845452;27;101056;-81
2022/06/21 13:55:17;;;;;;;5.50;0.77;;;;;;;26.92;23.33;99902.84;20862895;27;99535;-82
2022/06/21 14:05:38;;;;;;;7.57;0.93;;;;;;;26.92;23.14;99899.38;20857244;27;97178;-82
2022/06/21 14:15:48;;;;;;;6.22;0.82;;;;;;;26.99;23.30;99889.72;20866220;27;101071;-82
2022/06/21 14:25:53;;;;;;;0.80;0.60;;;;;;;27.08;23.67;99867.44;20860487;27;97117;-82
2022/06/21 14:36:04;;;;;;;2.28;0.77;;;;;;;27.13;23.49;99873.06;20868874;27;96874;-82
2022/06/21 14:46:31;;;;;;;0.80;0.77;;;;;;;27.09;23.03;99855.00;20885077;27;101545;-80
2022/06/21 14:56:56;;;;;;;3.60;0.85;;;;;;;27.11;23.32;99864.44;20877267;27;98424;-82
2022/06/21 15:07:19;;;;;;;4.65;0.98;;;;;;;27.18;23.19;99869.91;20879898;27;96837;-82
2022/06/21 15:17:35;;;;;;;1.30;0.60;;;;;;;27.19;22.93;99860.94;20883738;27;98210;-82
2022/06/21 15:27:42;;;;;;;3.13;0.70;;;;;;;27.15;22.88;99841.84;20870771;27;98601;-84
2022/06/21 15:37:56;;;;;;;5.43;1.08;;;;;;;27.16;23.27;99861.28;20865991;27;97128;-82
2022/06/21 15:58:40;;;;;;;2.17;0.80;;;;;;;27.34;23.06;99876.97;20868883;27;97811;-82
2022/06/21 16:08:52;;;;;;;1.20;0.68;;;;;;;27.37;23.14;99866.00;20856225;27;98071;-82
2022/06/21 16:18:56;;;;;;;1.52;0.68;;;;;;;27.30;24.61;99860.53;20843604;27;100824;-81
2022/06/21 16:29:03;;;;;;;4.75;1.90;;;;;;;27.24;23.66;99889.66;20869879;27;100677;-83
2022/06/21 16:39:39;;;;;;;2.67;1.45;;;;;;;27.18;23.25;99896.47;20864386;27;100971;-81
2022/06/21 16:49:56;;;;;;;8.02;5.43;;;;;;;27.18;23.86;99896.47;20829663;27;101662;-79
2022/06/21 16:59:56;;;;;;;5.70;3.10;;;;;;;27.20;24.62;99893.66;20847617;27;97923;-79
2022/06/21 17:10:03;;;;;;;2.13;1.20;;;;;;;26.87;24.36;99899.03;20839896;27;99061;-80
2022/06/21 17:20:29;;;;;;;8.30;4.18;;;;;;;26.73;24.31;99901.34;20842819;27;97051;-81
2022/06/21 17:30:39;;;;;;;1.50;1.00;;;;;;;26.47;24.01;99922.75;20834711;27;100757;-76
2022/06/21 17:40:58;;;;;;;2.28;1.00;;;;;;;26.33;23.81;99909.16;20817360;27;99796;-76
2022/06/21 17:51:04;;;;;;;0.85;0.70;;;;;;;26.13;24.55;99907.78;20832047;27;100481;-80
2022/06/21 18:01:13;;;;;;;2.58;0.75;;;;;;;25.85;25.21;99940.69;20869950;27;98783;-82
2022/06/21 18:11:42;;;;;;;1.63;0.80;;;;;;;25.70;25.35;99976.75;20811441;27;97578;-85
2022/06/21 18:21:51;;;;;;;2.78;0.75;;;;;;;25.42;25.89;99980.41;20739899;27;99491;-83
2022/06/21 18:32:30;;;;;;;2.92;2.15;;;;;;;25.22;26.73;99974.47;20756867;27;102304;-82
2022/06/21 18:42:35;;;;;;;3.08;1.85;;;;;;;25.11;27.27;99964.16;20727011;27;97764;-77
2022/06/21 18:52:41;;;;;;;1.48;0.98;;;;;;;25.05;27.50;99964.78;20735571;27;98485;-78
2022/06/21 19:03:02;;;;;;;3.35;1.20;;;;;;;24.92;28.12;99962.50;20747145;27;100876;-78
2022/06/21 19:13:06;;;;;;;6.83;3.60;;;;;;;24.90;27.76;99977.72;20804013;27;100519;-80
2022/06/21 19:23:43;;;;;;;4.28;2.20;;;;;;;24.82;28.30;99989.06;20850776;27;99252;-82
2022/06/21 19:33:58;;;;;;;3.70;1.50;;;;;;;25.12;28.21;100015.31;20829421;27;97206;-78
2022/06/21 19:44:24;;;;;;;3.60;2.90;;;;;;;25.19;27.99;100003.91;20814567;27;101183;-84
2022/06/21 19:55:07;;;;;;;3.03;2.22;;;;;;;24.76;28.75;100014.34;20804917;27;98523;-77
2022/06/21 20:05:11;;;;;;;1.73;1.40;;;;;;;24.52;28.93;100011.44;20763969;27;98027;-74
2022/06/21 20:15:31;;;;;;;2.90;1.00;;;;;;;24.23;29.39;100015.09;20829155;27;97285;-75
2022/06/21 20:25:53;;;;;;;3.20;0.98;;;;;;;23.93;29.67;100006.47;20792644;27;100076;-75
2022/06/21 20:35:58;;;;;;;4.47;0.93;;;;;;;23.88;30.10;99998.94;20782534;27;101609;-75
2022/06/21 20:46:24;;;;;;;1.52;1.23;;;;;;;23.49;30.81;99989.34;20807474;27;99783;-75
2022/06/21 20:56:26;;;;;;;2.15;0.90;;;;;;;23.54;31.04;99999.50;20809703;27;100752;-76
2022/06/21 21:06:34;;;;;;;2.47;1.00;;;;;;;23.37;31.26;99987.03;20814964;27;97465;-77
2022/06/21 21:16:46;;;;;;;1.25;1.00;;;;;;;24.00;30.54;99977.63;20815601;27;98810;-77
2022/06/21 21:26:52;;;;;;;2.45;1.38;;;;;;;24.22;30.04;99990.47;20822545;27;97963;-77
2022/06/21 21:37:15;;;;;;;1.10;1.00;;;;;;;24.26;30.17;99991.81;20816033;27;96991;-77
2022/06/21 21:47:17;;;;;;;1.23;0.90;;;;;;;24.21;30.28;99996.72;20804770;27;97672;-77
2022/06/21 21:57:19;;;;;;;;;;;;;;;24.20;30.52;100012.75;20799781;27;99019;-77
2022/06/21 22:07:26;;;;;;;1.30;1.00;;;;;;;24.11;30.76;100012.66;20800876;27;98298;-78
2022/06/21 22:17:46;;;;;;;2.15;1.20;;;;;;;24.07;30.84;100024.53;20793739;27;98778;-77
2022/06/21 22:27:51;;;;;;;2.67;1.17;;;;;;;24.05;31.00;100034.41;20807722;27;98004;-76
2022/06/21 22:37:53;;;;;;;3.30;1.10;;;;;;;24.07;31.04;100013.94;20780628;27;100732;-76
2022/06/21 22:47:56;;;;;;;2.28;1.15;;;;;;;24.02;31.09;100044.44;20799099;27;99047;-76
2022/06/21 22:58:04;;;;;;;1.02;0.93;;;;;;;24.09;31.45;100019.88;20797406;27;97595;-76
2022/06/21 23:08:17;;;;;;;1.30;1.00;;;;;;;24.08;31.30;100005.03;20802747;27;101301;-76
2022/06/21 23:18:32;;;;;;;2.47;1.20;;;;;;;24.04;31.38;100014.22;20817518;27;96874;-77
2022/06/21 23:28:34;;;;;;;1.92;1.00;;;;;;;23.87;31.59;100031.66;20807932;27;97049;-77
2022/06/21 23:38:40;;;;;;;1.23;1.13;;;;;;;23.86;32.21;99994.78;20796621;27;99300;-76
2022/06/21 23:48:41;;;;;;;2.45;1.05;;;;;;;23.77;32.06;99989.41;20809064;27;101348;-76
2022/06/21 23:58:44;;;;;;;1.10;1.00;;;;;;;23.60;32.10;100013.94;20820601;27;102390;-76
